createdAt,value
2018-06-18T00:01:00.282Z,4.73
2018-06-18T00:03:31.219Z,6.00
2018-06-18T00:06:02.611Z,5.80
2018-06-18T00:08:32.611Z,5.60
2018-06-18T00:11:03.253Z,5.60
2018-06-18T00:13:33.166Z,5.60
2018-06-18T00:16:04.853Z,5.80
2018-06-18T00:18:34.825Z,5.72
2018-06-18T00:21:06.335Z,5.05
2018-06-18T00:23:36.324Z,5.87
2018-06-18T00:26:06.456Z,5.60
2018-06-18T00:28:38.341Z,5.67
2018-06-18T00:31:10.193Z,5.00
2018-06-18T00:33:39.965Z,5.80
2018-06-18T00:36:09.909Z,6.00
2018-06-18T00:38:40.619Z,5.60
2018-06-18T00:41:12.009Z,5.43
2018-06-18T00:43:45.287Z,5.80
2018-06-18T00:46:15.849Z,4.87
2018-06-18T00:48:45.795Z,5.10
2018-06-18T00:51:17.382Z,5.63
2018-06-18T00:53:50.540Z,5.84
2018-06-18T00:56:20.362Z,5.60
2018-06-18T00:58:50.331Z,5.80
2018-06-18T01:01:20.992Z,6.17
2018-06-18T01:03:50.718Z,5.57
2018-06-18T01:06:21.298Z,5.10
2018-06-18T01:08:52.343Z,5.43
2018-06-18T01:11:22.748Z,5.53
2018-06-18T01:13:54.079Z,5.66
2018-06-18T01:16:24.524Z,5.77
2018-06-18T01:18:54.447Z,5.85
2018-06-18T01:21:25.756Z,6.07
2018-06-18T01:24:02.744Z,6.15
2018-06-18T01:26:33.289Z,6.57
2018-06-18T01:29:03.332Z,5.63
2018-06-18T01:31:33.979Z,5.92
2018-06-18T01:34:04.871Z,6.20
2018-06-18T01:36:35.031Z,5.62
2018-06-18T01:39:06.453Z,6.00
2018-06-18T01:41:37.057Z,5.70
2018-06-18T01:44:08.925Z,5.93
2018-06-18T01:46:40.263Z,5.50
2018-06-18T01:49:12.029Z,5.80
2018-06-18T01:51:43.998Z,6.03
2018-06-18T01:54:15.461Z,6.20
2018-06-18T01:56:45.461Z,5.40
2018-06-18T01:59:17.129Z,5.93
2018-06-18T02:01:46.953Z,5.47
2018-06-18T02:04:17.138Z,5.90
2018-06-18T02:06:47.065Z,6.40
2018-06-18T02:09:17.051Z,6.00
2018-06-18T02:11:47.814Z,6.70
2018-06-18T02:14:19.281Z,6.50
2018-06-18T02:16:49.868Z,6.30
2018-06-18T02:19:20.020Z,6.03
2018-06-18T02:21:49.601Z,6.00
2018-06-18T02:24:20.449Z,6.23
2018-06-18T02:27:21.918Z,6.70
2018-06-18T02:29:57.426Z,5.70
2018-06-18T02:32:32.502Z,5.90
2018-06-18T02:35:07.331Z,6.07
2018-06-18T02:37:42.871Z,5.27
2018-06-18T02:40:17.826Z,5.83
2018-06-18T02:42:49.579Z,5.80
2018-06-18T02:45:19.845Z,5.97
2018-06-18T02:47:49.814Z,6.00
2018-06-18T02:50:19.981Z,5.77
2018-06-18T02:52:52.801Z,5.52
2018-06-18T02:55:23.062Z,6.10
2018-06-18T02:57:54.583Z,6.08
2018-06-18T03:00:25.321Z,6.26
2018-06-18T03:02:56.004Z,6.36
2018-06-18T03:05:26.612Z,6.07
2018-06-18T03:07:56.468Z,5.43
2018-06-18T03:10:26.344Z,5.78
2018-06-18T03:12:56.901Z,6.20
2018-06-18T03:15:27.412Z,6.22
2018-06-18T03:17:58.024Z,6.20
2018-06-18T03:20:32.794Z,6.67
2018-06-18T03:23:08.519Z,5.83
2018-06-18T03:25:45.065Z,6.30
2018-06-18T03:28:20.086Z,6.37
2018-06-18T03:30:50.446Z,6.58
2018-06-18T03:33:22.086Z,5.80
2018-06-18T03:35:58.198Z,5.93
2018-06-18T03:38:30.578Z,5.80
2018-06-18T03:41:01.864Z,6.87
2018-06-18T03:43:33.995Z,6.42
2018-06-18T03:46:09.402Z,5.60
2018-06-18T03:48:40.157Z,5.63
2018-06-18T03:51:09.935Z,6.03
2018-06-18T03:53:39.749Z,5.60
2018-06-18T03:56:10.505Z,6.13
2018-06-18T03:58:40.575Z,5.63
2018-06-18T04:01:39.850Z,6.00
2018-06-18T04:04:18.471Z,5.90
2018-06-18T04:06:55.316Z,5.93
2018-06-18T04:09:30.925Z,6.15
2018-06-18T04:12:09.875Z,5.80
2018-06-18T04:14:45.501Z,5.50
2018-06-18T04:17:16.540Z,6.00
2018-06-18T04:19:47.115Z,4.80
2018-06-18T04:22:20.370Z,5.50
2018-06-18T04:24:51.020Z,5.05
2018-06-18T04:27:22.136Z,5.37
2018-06-18T04:29:54.401Z,5.03
2018-06-18T04:32:26.996Z,4.55
2018-06-18T04:35:00.089Z,5.10
2018-06-18T04:37:30.236Z,5.33
2018-06-18T04:40:00.111Z,5.50
2018-06-18T04:42:35.048Z,4.60
2018-06-18T04:45:10.242Z,4.30
2018-06-18T04:47:45.182Z,4.40
2018-06-18T04:50:20.112Z,4.70
2018-06-18T04:52:51.388Z,4.40
2018-06-18T04:55:21.897Z,4.53
2018-06-18T04:57:52.515Z,4.60
2018-06-18T05:01:06.472Z,4.33
2018-06-18T05:03:36.495Z,4.90
2018-06-18T05:06:06.437Z,4.83
2018-06-18T05:08:45.743Z,4.15
2018-06-18T05:11:16.531Z,4.60
2018-06-18T05:13:48.909Z,3.97
2018-06-18T05:16:19.414Z,4.07
2018-06-18T05:38:33.459Z,3.73
2018-06-18T05:41:04.119Z,3.30
2018-06-18T05:43:34.745Z,3.90
2018-06-18T05:46:04.643Z,3.57
2018-06-18T05:48:34.571Z,4.00
2018-06-18T05:51:05.103Z,3.37
2018-06-18T05:53:35.824Z,3.43
2018-06-18T05:56:05.637Z,3.92
2018-06-18T05:58:40.794Z,3.55
2018-06-18T06:01:11.075Z,3.03
2018-06-18T06:03:44.037Z,3.50
2018-06-18T06:06:14.728Z,3.57
2018-06-18T06:08:44.566Z,3.00
2018-06-18T06:11:15.015Z,3.60
2018-06-18T06:13:46.642Z,3.73
2018-06-18T06:16:16.857Z,4.00
2018-06-18T06:18:47.487Z,4.37
2018-06-18T06:21:19.242Z,6.23
2018-06-18T06:23:49.701Z,3.70
2018-06-18T06:26:21.673Z,3.80
2018-06-18T06:28:52.229Z,3.25
2018-06-18T06:31:22.712Z,3.60
2018-06-18T06:33:53.217Z,3.77
2018-06-18T06:36:26.123Z,4.17
2018-06-18T06:38:57.671Z,3.67
2018-06-18T06:41:29.665Z,2.83
2018-06-18T06:44:00.160Z,3.53
2018-06-18T06:46:31.645Z,3.57
2018-06-18T06:49:01.603Z,3.50
2018-06-18T06:51:31.599Z,3.13
2018-06-18T06:54:01.657Z,3.30
2018-06-18T06:56:31.652Z,3.40
2018-06-18T06:59:01.887Z,3.50
2018-06-18T07:01:33.730Z,3.30
2018-06-18T07:04:04.635Z,4.90
2018-06-18T07:06:35.255Z,4.05
2018-06-18T07:09:14.056Z,3.50
2018-06-18T07:11:45.524Z,3.00
2018-06-18T07:14:15.443Z,3.17
2018-06-18T07:16:46.285Z,2.80
2018-06-18T07:19:16.162Z,3.07
2018-06-18T07:21:46.156Z,3.00
2018-06-18T07:24:20.624Z,2.67
2018-06-18T07:26:51.107Z,2.90
2018-06-18T07:29:20.964Z,2.53
2018-06-18T07:31:51.708Z,3.20
2018-06-18T07:34:21.756Z,2.97
2018-06-18T07:36:51.639Z,2.83
2018-06-18T07:39:29.038Z,2.90
2018-06-18T07:41:59.123Z,3.10
2018-06-18T07:44:30.023Z,2.80
2018-06-18T07:47:00.548Z,2.52
2018-06-18T07:49:31.192Z,2.77
2018-06-18T07:52:02.526Z,2.87
2018-06-18T07:54:33.006Z,2.92
2018-06-18T07:57:02.789Z,2.67
2018-06-18T07:59:32.729Z,2.60
2018-06-18T08:02:04.161Z,3.40
2018-06-18T08:04:35.021Z,2.90
2018-06-18T08:07:06.579Z,2.47
2018-06-18T08:09:37.642Z,2.40
2018-06-18T08:12:08.681Z,2.87
2018-06-18T08:14:40.121Z,2.60
2018-06-18T08:17:14.045Z,2.80
2018-06-18T08:19:44.615Z,2.70
2018-06-18T08:22:25.583Z,2.77
2018-06-18T08:24:57.143Z,2.80
2018-06-18T08:27:27.788Z,3.00
2018-06-18T08:29:57.712Z,2.67
2018-06-18T08:32:27.676Z,2.70
2018-06-18T08:34:59.313Z,2.93
2018-06-18T08:37:32.160Z,2.63
2018-06-18T08:40:04.755Z,2.50
2018-06-18T08:42:35.332Z,2.77
2018-06-18T08:45:05.776Z,2.90
2018-06-18T08:47:36.630Z,2.50
2018-06-18T08:50:11.652Z,2.90
2018-06-18T08:52:46.533Z,2.40
2018-06-18T08:55:22.217Z,3.23
2018-06-18T08:57:57.209Z,2.40
2018-06-18T09:00:32.236Z,2.10
2018-06-18T09:03:10.295Z,2.60
2018-06-18T09:05:44.280Z,2.77
2018-06-18T09:08:21.054Z,2.73
2018-06-18T09:10:52.374Z,2.70
2018-06-18T09:13:23.241Z,2.50
2018-06-18T09:15:57.876Z,2.60
2018-06-18T09:18:27.689Z,2.60
2018-06-18T09:20:57.778Z,3.30
2018-06-18T09:23:28.206Z,2.30
2018-06-18T09:25:58.137Z,2.52
2018-06-18T09:28:30.563Z,2.53
2018-06-18T09:31:01.270Z,2.45
2018-06-18T09:33:33.089Z,2.30
2018-06-18T09:36:02.705Z,2.37
2018-06-18T09:38:32.513Z,2.77
2018-06-18T09:41:04.150Z,2.53
2018-06-18T09:43:43.999Z,2.50
2018-06-18T09:46:15.258Z,2.40
2018-06-18T09:48:50.913Z,2.37
2018-06-18T09:51:26.568Z,2.10
2018-06-18T09:54:01.279Z,2.70
2018-06-18T09:56:35.037Z,2.00
2018-06-18T09:59:09.769Z,1.90
2018-06-18T10:01:39.711Z,2.90
2018-06-18T10:04:09.692Z,2.00
2018-06-18T10:06:40.990Z,2.10
2018-06-18T10:09:18.685Z,1.73
2018-06-18T10:11:49.235Z,1.97
2018-06-18T10:14:19.257Z,1.83
2018-06-18T10:16:49.256Z,2.27
2018-06-18T10:19:21.067Z,1.97
2018-06-18T10:21:50.857Z,2.10
2018-06-18T10:24:21.432Z,2.10
2018-06-18T10:26:52.803Z,2.17
2018-06-18T10:29:24.195Z,1.77
2018-06-18T10:31:53.884Z,2.13
2018-06-18T10:34:28.771Z,2.10
2018-06-18T10:37:04.268Z,2.13
2018-06-18T10:39:39.242Z,2.45
2018-06-18T10:42:14.327Z,2.37
2018-06-18T10:44:44.296Z,2.20
2018-06-18T10:47:17.888Z,1.80
2018-06-18T10:49:47.770Z,2.23
2018-06-18T10:52:17.984Z,2.57
2018-06-18T10:54:47.870Z,2.30
2018-06-18T10:57:17.434Z,2.07
2018-06-18T10:59:47.383Z,2.27
2018-06-18T11:02:18.725Z,2.58
2018-06-18T11:04:55.230Z,2.10
2018-06-18T11:07:25.922Z,2.13
2018-06-18T11:09:55.748Z,2.40
2018-06-18T11:12:25.442Z,2.00
2018-06-18T11:14:55.315Z,2.13
2018-06-18T11:18:33.726Z,2.30
2018-06-18T11:21:18.276Z,2.20
2018-06-18T11:23:53.334Z,2.10
2018-06-18T11:26:29.144Z,2.40
2018-06-18T11:29:00.899Z,2.20
2018-06-18T11:31:37.390Z,2.40
2018-06-18T11:34:07.939Z,2.10
2018-06-18T11:36:39.919Z,2.35
2018-06-18T11:41:48.312Z,2.27
2018-06-18T11:44:19.758Z,2.20
2018-06-18T11:46:49.809Z,2.13
2018-06-18T11:49:20.471Z,2.60
2018-06-18T11:51:50.556Z,2.53
2018-06-18T11:54:23.591Z,2.17
2018-06-18T11:56:54.877Z,2.07
2018-06-18T11:59:34.014Z,2.23
2018-06-18T12:02:09.960Z,2.53
2018-06-18T12:04:44.933Z,2.33
2018-06-18T12:07:20.447Z,2.25
2018-06-18T12:09:52.888Z,2.50
2018-06-18T12:12:22.917Z,2.60
2018-06-18T12:14:55.358Z,2.53
2018-06-18T12:17:25.839Z,2.23
2018-06-18T12:19:57.353Z,2.00
2018-06-18T12:22:27.954Z,2.00
2018-06-18T12:24:58.604Z,2.20
2018-06-18T12:27:31.663Z,2.03
2018-06-18T12:30:02.713Z,2.60
2018-06-18T12:32:35.492Z,2.50
2018-06-18T12:35:06.270Z,2.22
2018-06-18T12:37:36.882Z,1.98
2018-06-18T12:40:09.047Z,1.90
2018-06-18T12:42:38.852Z,2.20
2018-06-18T12:45:14.646Z,2.00
2018-06-18T12:47:50.333Z,2.10
2018-06-18T12:50:25.860Z,2.00
2018-06-18T12:55:43.111Z,2.44
2018-06-18T12:58:13.032Z,2.70
2018-06-18T13:00:44.277Z,2.50
2018-06-18T13:03:16.931Z,2.40
2018-06-18T13:05:47.610Z,1.90
2018-06-18T13:08:18.363Z,2.40
2018-06-18T13:10:48.326Z,2.40
2018-06-18T13:13:20.727Z,2.10
2018-06-18T13:15:51.383Z,2.22
2018-06-18T13:18:23.843Z,2.10
2018-06-18T13:20:54.840Z,2.00
2018-06-18T13:23:26.433Z,2.40
2018-06-18T13:25:57.114Z,2.27
2018-06-18T13:28:29.479Z,2.30
2018-06-18T13:30:59.539Z,2.83
2018-06-18T13:33:30.707Z,2.27
2018-06-18T13:36:01.472Z,2.20
2018-06-18T13:38:39.209Z,2.20
2018-06-18T13:41:15.415Z,2.80
2018-06-18T13:43:52.257Z,2.63
2018-06-18T13:46:27.343Z,2.23
2018-06-18T13:48:58.319Z,2.77
2018-06-18T13:51:28.651Z,2.30
2018-06-18T13:53:59.513Z,2.60
2018-06-18T13:56:30.313Z,1.93
2018-06-18T13:59:01.033Z,2.07
2018-06-18T14:01:31.471Z,2.20
2018-06-18T14:04:03.704Z,2.40
2018-06-18T14:06:35.415Z,2.20
2018-06-18T14:09:06.769Z,1.80
2018-06-18T14:11:37.682Z,2.13
2018-06-18T14:14:09.060Z,1.90
2018-06-18T14:16:40.387Z,2.40
2018-06-18T14:19:15.024Z,1.80
2018-06-18T14:21:45.064Z,1.80
2018-06-18T14:24:17.705Z,2.15
2018-06-18T14:26:48.724Z,1.80
2018-06-18T14:29:27.955Z,1.98
2018-06-18T14:32:01.442Z,2.00
2018-06-18T14:34:36.441Z,2.30
2018-06-18T14:37:11.370Z,1.60
2018-06-18T14:39:46.382Z,1.80
2018-06-18T14:42:16.479Z,1.70
2018-06-18T14:44:46.429Z,1.80
2018-06-18T14:47:17.154Z,1.67
2018-06-18T14:49:47.042Z,1.60
2018-06-18T14:52:17.775Z,1.90
2018-06-18T14:54:48.232Z,1.92
2018-06-18T14:57:20.393Z,1.98
2018-06-18T14:59:58.447Z,2.10
2018-06-18T15:02:28.975Z,1.87
2018-06-18T15:04:59.303Z,2.10
2018-06-18T15:07:30.901Z,1.50
2018-06-18T15:10:01.588Z,1.70
2018-06-18T15:12:35.880Z,1.80
2018-06-18T15:15:11.122Z,1.80
2018-06-18T15:17:43.488Z,1.77
2018-06-18T15:20:15.361Z,1.80
2018-06-18T15:22:51.310Z,2.03
2018-06-18T15:25:22.040Z,1.77
2018-06-18T15:27:52.029Z,1.57
2018-06-18T15:30:23.874Z,1.77
2018-06-18T15:32:54.726Z,1.90
2018-06-18T15:35:26.020Z,1.80
2018-06-18T15:37:57.407Z,1.62
2018-06-18T15:40:29.795Z,1.85
2018-06-18T15:42:59.863Z,1.67
2018-06-18T15:45:29.777Z,1.70
2018-06-18T15:47:59.657Z,1.60
2018-06-18T15:50:29.694Z,1.87
2018-06-18T15:53:01.199Z,3.58
2018-06-18T15:55:31.774Z,5.00
2018-06-18T15:58:02.429Z,4.40
2018-06-18T16:00:32.234Z,2.80
2018-06-18T16:03:02.020Z,2.80
2018-06-18T16:05:32.825Z,1.90
2018-06-18T16:08:02.709Z,1.77
2018-06-18T16:10:34.030Z,1.98
2018-06-18T16:13:05.148Z,2.22
2018-06-18T16:15:35.910Z,1.54
2018-06-18T16:18:06.116Z,1.76
2018-06-18T16:20:36.018Z,1.60
2018-06-18T16:23:07.321Z,1.83
2018-06-18T16:25:36.924Z,1.67
2018-06-18T16:28:06.579Z,1.50
2018-06-18T16:30:38.057Z,1.90
2018-06-18T16:33:07.730Z,1.90
2018-06-18T16:35:38.263Z,2.27
2018-06-18T16:38:12.024Z,1.60
2018-06-18T16:40:48.086Z,2.00
2018-06-18T16:43:19.340Z,1.90
2018-06-18T16:45:50.508Z,1.60
2018-06-18T16:48:21.947Z,2.08
2018-06-18T16:50:52.425Z,2.20
2018-06-18T16:53:26.597Z,2.50
2018-06-18T16:55:57.155Z,5.00
2018-06-18T16:58:30.882Z,4.65
2018-06-18T17:01:02.445Z,3.20
2018-06-18T17:03:32.128Z,3.60
2018-06-18T17:06:03.588Z,2.60
2018-06-18T17:08:33.721Z,2.23
2018-06-18T17:11:04.590Z,2.13
2018-06-18T17:13:38.963Z,1.70
2018-06-18T17:16:10.400Z,2.00
2018-06-18T17:18:40.540Z,1.90
2018-06-18T17:21:11.327Z,1.65
2018-06-18T17:23:43.882Z,1.93
2018-06-18T17:26:13.801Z,2.00
2018-06-18T17:28:43.791Z,1.70
2018-06-18T17:31:15.172Z,2.17
2018-06-18T17:33:45.887Z,2.20
2018-06-18T17:36:20.821Z,1.70
2018-06-18T17:38:51.571Z,2.00
2018-06-18T17:41:22.319Z,2.77
2018-06-18T17:43:57.535Z,1.80
2018-06-18T17:46:29.510Z,2.13
2018-06-18T17:48:59.515Z,2.20
2018-06-18T17:51:31.695Z,2.17
2018-06-18T17:54:01.588Z,1.73
2018-06-18T17:56:31.669Z,2.10
2018-06-18T17:59:02.401Z,2.73
2018-06-18T18:01:32.327Z,2.10
2018-06-18T18:04:04.751Z,2.10
2018-06-18T18:06:35.491Z,2.10
2018-06-18T18:09:09.186Z,1.90
2018-06-18T18:11:41.001Z,1.90
2018-06-18T18:14:11.071Z,2.90
2018-06-18T18:16:41.625Z,2.20
2018-06-18T18:19:17.144Z,1.90
2018-06-18T18:21:49.558Z,2.00
2018-06-18T18:24:19.675Z,1.92
2018-06-18T18:26:49.410Z,1.62
2018-06-18T18:29:22.874Z,2.12
2018-06-18T18:31:52.916Z,2.13
2018-06-18T18:34:27.404Z,2.00
2018-06-18T18:36:57.945Z,9.43
2018-06-18T18:39:29.476Z,4.93
2018-06-18T18:42:00.793Z,3.93
2018-06-18T18:44:37.131Z,2.83
2018-06-18T18:47:09.984Z,2.27
2018-06-18T18:49:40.736Z,2.37
2018-06-18T18:52:13.493Z,2.70
2018-06-18T18:56:02.346Z,2.60
2018-06-18T18:59:40.005Z,2.30
2018-06-18T19:02:10.234Z,2.03
2018-06-18T19:07:51.462Z,2.10
2018-06-18T19:10:27.789Z,2.25
2018-06-18T19:12:59.266Z,2.12
2018-06-18T19:15:30.469Z,2.70
2018-06-18T19:18:00.329Z,2.57
2018-06-18T19:34:37.427Z,1.90
2018-06-18T19:37:08.902Z,2.17
2018-06-18T19:39:44.838Z,2.27
2018-06-18T19:42:15.979Z,2.43
2018-06-18T19:44:49.036Z,2.50
2018-06-18T19:47:37.665Z,2.74
2018-06-18T19:50:09.646Z,2.60
2018-06-18T19:52:41.274Z,2.80
2018-06-18T19:55:20.366Z,2.17
2018-06-18T19:57:53.063Z,2.47
2018-06-18T20:00:27.895Z,2.53
2018-06-18T20:02:58.857Z,2.65
2018-06-18T20:05:29.743Z,2.50
2018-06-18T20:08:03.319Z,2.50
2018-06-18T20:10:33.297Z,2.63
2018-06-18T20:13:06.767Z,3.35
2018-06-18T20:15:37.236Z,2.43
2018-06-18T20:18:08.766Z,3.10
2018-06-18T20:20:39.186Z,3.47
2018-06-18T20:23:12.278Z,2.67
2018-06-18T20:25:58.316Z,2.23
2018-06-18T20:28:28.058Z,2.67
2018-06-18T20:30:59.747Z,2.60
2018-06-18T20:33:31.156Z,2.55
2018-06-18T20:36:10.712Z,3.10
2018-06-18T20:38:40.768Z,2.80
2018-06-18T20:41:12.502Z,3.43
2018-06-18T20:43:51.729Z,2.15
2018-06-18T20:46:23.395Z,2.90
2018-06-18T20:48:53.605Z,3.03
2018-06-18T20:51:24.644Z,2.73
2018-06-18T20:53:54.654Z,2.83
2018-06-18T20:56:25.498Z,2.97
2018-06-18T20:58:55.160Z,3.43
2018-06-18T21:01:25.339Z,3.03
2018-06-18T21:03:56.281Z,2.87
2018-06-18T21:06:26.295Z,2.80
2018-06-18T21:08:57.011Z,2.70
2018-06-18T21:11:27.812Z,3.17
2018-06-18T21:13:58.201Z,2.70
2018-06-18T21:16:31.435Z,3.30
2018-06-18T21:19:02.163Z,3.47
2018-06-18T21:21:32.582Z,3.25
2018-06-18T21:24:06.491Z,3.60
2018-06-18T21:26:39.730Z,3.58
2018-06-18T21:29:10.683Z,3.33
2018-06-18T21:31:43.982Z,3.80
2018-06-18T21:34:15.357Z,3.57
2018-06-18T21:36:47.995Z,3.97
2018-06-18T21:39:20.671Z,3.70
2018-06-18T21:41:50.688Z,3.23
2018-06-18T21:44:25.067Z,3.80
2018-06-18T21:46:55.490Z,3.80
2018-06-18T21:49:25.448Z,3.10
2018-06-18T21:51:55.589Z,3.50
2018-06-18T21:54:25.243Z,3.30
2018-06-18T21:56:56.077Z,3.37
2018-06-18T21:59:26.065Z,3.47
2018-06-18T22:01:56.026Z,3.27
2018-06-18T22:04:25.931Z,3.27
2018-06-18T22:06:55.947Z,3.03
2018-06-18T22:09:26.215Z,3.33
2018-06-18T22:11:59.380Z,3.70
2018-06-18T22:14:30.016Z,4.20
2018-06-18T22:17:01.269Z,3.80
2018-06-18T22:19:32.055Z,3.67
2018-06-18T22:22:01.779Z,3.50
2018-06-18T22:24:31.716Z,4.00
2018-06-18T22:29:29.249Z,3.70
2018-06-18T22:31:58.348Z,3.80
2018-06-18T22:34:27.637Z,3.60
2018-06-18T22:36:56.826Z,3.90
2018-06-18T22:39:26.089Z,3.53
2018-06-18T22:41:55.283Z,3.80
2018-06-18T22:44:24.671Z,3.37
2018-06-18T22:46:53.882Z,3.60
2018-06-18T22:49:23.851Z,3.43
2018-06-18T22:51:53.737Z,3.20
2018-06-18T22:54:23.947Z,3.40
2018-06-18T22:56:53.958Z,3.30
2018-06-18T22:59:23.995Z,3.70
2018-06-18T23:01:54.242Z,3.60
2018-06-18T23:04:24.041Z,3.20
2018-06-18T23:06:54.067Z,3.50
2018-06-18T23:09:28.916Z,3.60
2018-06-18T23:11:58.099Z,3.53
2018-06-18T23:14:27.418Z,4.20
2018-06-18T23:16:56.785Z,3.37
2018-06-18T23:19:26.048Z,3.50
2018-06-18T23:21:55.234Z,3.80
2018-06-18T23:24:24.398Z,5.03
2018-06-18T23:26:54.199Z,4.13
2018-06-18T23:29:24.666Z,4.27
2018-06-18T23:31:54.221Z,4.23
2018-06-18T23:34:24.436Z,4.27
2018-06-18T23:36:54.377Z,3.60
2018-06-18T23:39:24.351Z,3.90
2018-06-18T23:41:56.056Z,3.60
2018-06-18T23:44:25.404Z,3.33
2018-06-18T23:46:54.662Z,4.07
2018-06-18T23:49:24.359Z,3.67
2018-06-18T23:51:54.414Z,4.20
2018-06-18T23:54:25.083Z,4.00
2018-06-18T23:56:54.464Z,3.83
2018-06-18T23:59:24.453Z,3.77
